Drury, MA

12:39 AM EST on December 06, 2019 (GMT -0500)
Parker Brook | | Change Station
Active Advisory: Winter Weather Advisory

Elev 1840 ft 42.61 °N, 73.01 °W | Updated 11 seconds ago

Clear
Clear
21.6 °F
Feels Like 12 °F
N
8
Wind Variable Wind from NNW
Gusts 8.0 mph

Today
High -- | Low -- °F
--% Chance of Precip.
Yesterday
High -- | Low -- °F
Precip. -- in
Pressure 30.01 in
Visibility 10.0 miles
Clouds Clear
Windchill 12 °F
Dew Point 16 °F
Humidity 80%
Rainfall 0.00 in
Snow Depth Not available.
7:07 AM 4:18 PM
Waxing Gibbous, 68% visible
METAR KAQW 060352Z AUTO 27012KT 10SM CLR M03/M10 A2998 RMK AO2 SLP161 T10331100 TSNO
Pressure 30.01 in
Visibility 10.0 miles
Clouds Clear
Windchill 12 °F
Dew Point 16 °F
Humidity 80%
Rainfall 0.00 in
Snow Depth Not available.
7:07 AM 4:18 PM
Waxing Gibbous, 68% visible
METAR KAQW 060352Z AUTO 27012KT 10SM CLR M03/M10 A2998 RMK AO2 SLP161 T10331100 TSNO

Get Your Daily Forecast Email!

Thanks for signing up!

Be on the lookout for a verification email in your inbox.

You'll start receiving severe weather alerts in your inbox..

×

10-Day Weather Forecast

Almanac

Astronomy

Dec. 06, 2019 Rise Set
Actual Time
Civil Twilight
Nautical Twilight
Astronomical Twilight
Moon
Length of Visible Light
Length of Day
Tomorrow will be .
, % of the Moon is Illuminated

Today's Extremes

State Highs State Lows

Community

WunderPhotos

Category 6

Welcome to Category 6. This is the collective home for Weather Underground's featured writeups by Dr. Jeff Masters (right), Bob Henson (left), Chris Burt, and other regular contributors.

Nearby

Air Quality

  Air Quality AQ Index Pollutant
Not available.

Snow Depth

Station Depth Elevation

Earthquake Activity

City Distance Mag. Time & Date
Minimum magnitude displayed is 2.5.

Coastal Water Temperatures

Place Temperature

Stations

Nearby Weather Stations

Station Location Temp. Windchill Dew Point Humidity Wind Precip. Elev Updated Type
                   

Watches & Warnings

Winter Weather Advisory
Issued: 3:45 PM EST Dec. 5, 2019 – National Weather Service

... Winter Weather Advisory in effect from 10 am to 10 PM EST
Friday...

* what... snow expected. Total snow accumulations of 2 to 4 inches
with up to 5 inches possible in the higher elevations of the
southern Green Mountains.

* Where... in Vermont, Bennington County. In New York, eastern
Rensselaer County. In Massachusetts, northern Berkshire County.

* When... from 10 am to 10 PM EST Friday.

* Impacts... plan on slippery Road conditions. The hazardous
conditions could impact the evening commute.

* Additional details... snow may fall heavily at times and reduce
visibility. Motorists should allow extra time to arrive to
their destinations and use caution while traveling.

Precautionary/preparedness actions...

Slow down and use caution while traveling.